Afton, Minnesota
Current Conditions -  °F | °C
As of 9:31 PM on Monday 22 Dec 2014 (Local Time) from K21D Reporting Station
Overcast Overcast  
Wind Chill: 28°   Ceiling: 1300
Heat Index: 36°   Visibility: 7mi
Dew Point: 34°   Wind: 10mph
Humidity: 93%   Direction: 80°E
Pressure: 29.64"   Gusts: 17mph
Location:  44.9°N, 92.78°W
Report Text: K21D 230331Z AUTO 08009G15KT 7SM OVC013 02/01 A2964 RMK AO2
Loading
Personal Weather Stations






























Interactive Weather Map New forecast layout! Learn more

10-Day Weather Forecast

Advertisements
Track Severe Weather on mobile